Аэропорт: Якутск. Якутск

ICAO: UEEE

METAR:
2022-06-26 11:00:00
UEEE 261100Z 19002MPS CAVOK 30/12 Q0994 R05R/09//60 NOSIG RMK QFE737
METAR:
2022-06-26 08:00:00
TAF UEEE 260800Z 2609/2715 16003G08MPS CAVOK TX31/2609Z TN16/2618Z FM261500 27003G10MPS 9999 SCT030CB BKN100 TEMPO 2618/2706 VRB14MPS 3000 -TSRA